KRPH

Graham Municipal Airport

Graham, Texas, USA
METAR KRPH 252217Z AUTO 12011G18KT 10SM SCT090 BKN120 34/18 A2981 RMK AO2
Observed Flight Rules
May-25 @ 22:17 UTC (21 minutes ago) Visual Flight Rules
Wind Visibility Clouds
120° at 11 knots
 Gusting to 18 knots
10 miles
  • Scattered at 9,000' AGL
  • Broken at 12,000' AGL
Temperatures Readings
Current 34°C / 93°F
Dewpoint 18°C / 64°F
Humidity 39%
Altimeter 29.81" Hg
Pressure 1009 hPa
Elevation 342
METAR KRPH 252217Z AUTO 12011G18KT 10SM SCT090 BKN120 34/18 A2981 RMK AO2
Observed Flight Rules
May-25 @ 22:17 UTC
(21 minutes ago)
VFR
Wind Visibility
120° at 11 knots
 Gusting to 18 knots
10 miles
Clouds
  • Scattered at 9,000' AGL
  • Broken at 12,000' AGL
Temperature Dewpoint
34°C / 93°F 18°C / 64°F
Humidity Altimeter Pressure
39% 29.81" Hg 1009 hPa